Home   Weather   China   Pudong   Past weeks
Flag for China

Past Weather in Pudong, Shanghai Municipality, China — Yesterday and Last 2 Weeks

Currently: 77 °F. Light rain. Clear. (Weather station: Shanghai Hongqiao Airport, China). See more current weather

Past Weather in Pudong — Graph

°F

Pudong Temperature Yesterday

Maximum temperature yesterday: 91 °F (at 12:30 pm)
Minimum temperature yesterday: 73 °F (at 4:00 am)
Average temperature yesterday: 81 °F

High & Low Weather Summary for the Past Weeks

 TemperatureHumidityPressure
High93 °F (Jun 15, 2:00 pm)100% (Jun 12, 1:53 am)30.04 "Hg (Jun 12, 1:53 am)
Low63 °F (Jun 6, 1:30 am)26% (Jun 3, 1:23 pm)29.56 "Hg (Jun 14, 1:00 pm)
Average76 °F70%29.80 "Hg
* Reported Jun 2 7:00 am — Jun 17 7:30 am, Pudong. Weather by CustomWeather, © 2024

Note: Actual official high and low records may vary slightly from our data, if they occured in-between our weather recording intervals... More about our weather records

Pudong Weather History for the Previous 24 Hours

Scroll right to see more
 ConditionsComfort  
Time TempWeatherWind HumidityBarometerVisibility
7:30 am
Mon, Jun 17
75 °FLight rain. Clear.6 mph89%29.77 "HgN/A
7:00 am75 °FLight rain. Scattered clouds.6 mph89%29.77 "HgN/A
6:30 am77 °FSprinkles. Partly sunny.3 mph83%29.77 "HgN/A
6:00 am77 °FSprinkles. Scattered clouds.6 mph79%29.74 "HgN/A
5:30 am77 °FScattered clouds.6 mph79%29.74 "HgN/A
5:00 am77 °FScattered clouds.6 mph79%29.74 "HgN/A
4:30 am77 °FClear.8 mph79%29.74 "Hg10 mi
4:00 am77 °FClear.6 mph79%29.74 "Hg10 mi
3:00 am77 °FPassing clouds.6 mph79%29.74 "HgN/A
2:30 am77 °FClear.6 mph79%29.74 "Hg10 mi
2:00 am77 °FClear.8 mph79%29.74 "Hg10 mi
1:00 am77 °FPassing clouds.10 mph79%29.77 "HgN/A
12:30 am77 °FPassing clouds.10 mph79%29.77 "HgN/A
12:00 am77 °FPassing clouds.13 mph79%29.77 "HgN/A
11:30 pm
Sun, Jun 16
79 °FPassing clouds.10 mph74%29.80 "HgN/A
11:00 pm79 °FPassing clouds.10 mph74%29.80 "HgN/A
10:30 pm79 °FPassing clouds.10 mph74%29.80 "HgN/A
10:00 pm79 °FClear.8 mph74%29.80 "Hg10 mi
9:30 pm79 °FPassing clouds.8 mph74%29.80 "HgN/A
9:00 pm79 °FClear.10 mph74%29.80 "Hg10 mi
8:30 pm79 °FClear.10 mph74%29.80 "Hg10 mi
8:00 pm79 °FClear.10 mph74%29.77 "Hg10 mi
7:00 pm81 °FPassing clouds.8 mph70%29.77 "HgN/A
6:30 pm82 °FSunny.10 mph66%29.77 "Hg10 mi
6:00 pm82 °FSunny.13 mph62%29.77 "Hg10 mi
5:30 pm84 °FSunny.13 mph58%29.74 "Hg10 mi
5:00 pm86 °FSunny.13 mph55%29.74 "Hg10 mi
4:30 pm86 °FSunny.10 mph52%29.74 "Hg10 mi
4:00 pm88 °FPassing clouds.10 mph46%29.74 "HgN/A
3:00 pm90 °FPassing clouds.10 mph43%29.74 "HgN/A
2:30 pm91 °FPassing clouds.8 mph38%29.74 "HgN/A
1:30 pm91 °FPassing clouds.8 mph38%29.74 "HgN/A
1:00 pm91 °FPassing clouds.8 mph38%29.74 "HgN/A
12:30 pm91 °FSunny.6 mph38%29.77 "Hg10 mi
12:00 pm88 °FPassing clouds.8 mph43%29.77 "HgN/A
11:30 am88 °FPassing clouds.6 mph46%29.77 "HgN/A
11:00 am88 °FPassing clouds.8 mph46%29.77 "HgN/A
10:00 am84 °FPassing clouds.8 mph51%29.80 "HgN/A
9:30 am84 °FPassing clouds.10 mph55%29.80 "HgN/A
9:00 am82 °FPassing clouds.8 mph58%29.80 "HgN/A
8:00 am79 °FPassing clouds.6 mph74%29.77 "HgN/A
Weather by CustomWeather, © 2024

See weather overview